sensor_id;sensor_type;location;lat;lon;timestamp;P1;durP1;ratioP1;P2;durP2;ratioP2
33270;SDS011;53180;51.344;6.152;2023-01-10T00:02:08;3.58;;;3.28;;
33270;SDS011;53180;51.344;6.152;2023-01-10T00:04:38;4.10;;;3.20;;
33270;SDS011;53180;51.344;6.152;2023-01-10T00:07:06;3.40;;;3.10;;
33270;SDS011;53180;51.344;6.152;2023-01-10T00:09:35;3.22;;;2.92;;
33270;SDS011;53180;51.344;6.152;2023-01-10T00:12:03;2.80;;;2.60;;
33270;SDS011;53180;51.344;6.152;2023-01-10T00:14:50;13.25;;;3.25;;
33270;SDS011;53180;51.344;6.152;2023-01-10T00:17:18;7.05;;;2.92;;
33270;SDS011;53180;51.344;6.152;2023-01-10T00:19:48;3.20;;;2.72;;
33270;SDS011;53180;51.344;6.152;2023-01-10T00:22:16;3.00;;;2.80;;
33270;SDS011;53180;51.344;6.152;2023-01-10T00:24:50;2.90;;;2.70;;
33270;SDS011;53180;51.344;6.152;2023-01-10T00:27:18;3.47;;;3.17;;
33270;SDS011;53180;51.344;6.152;2023-01-10T00:29:49;3.03;;;2.80;;
33270;SDS011;53180;51.344;6.152;2023-01-10T00:32:19;3.17;;;2.85;;
33270;SDS011;53180;51.344;6.152;2023-01-10T00:34:49;5.47;;;3.13;;
33270;SDS011;53180;51.344;6.152;2023-01-10T00:37:18;4.03;;;3.30;;
33270;SDS011;53180;51.344;6.152;2023-01-10T00:39:46;3.05;;;2.63;;
33270;SDS011;53180;51.344;6.152;2023-01-10T00:42:14;4.00;;;3.05;;
33270;SDS011;53180;51.344;6.152;2023-01-10T00:45:00;3.17;;;2.92;;
33270;SDS011;53180;51.344;6.152;2023-01-10T00:47:28;2.85;;;2.65;;
33270;SDS011;53180;51.344;6.152;2023-01-10T00:50:00;2.80;;;2.60;;
33270;SDS011;53180;51.344;6.152;2023-01-10T00:52:31;3.72;;;2.95;;
33270;SDS011;53180;51.344;6.152;2023-01-10T00:54:59;3.38;;;2.70;;
33270;SDS011;53180;51.344;6.152;2023-01-10T00:57:27;3.58;;;2.58;;
33270;SDS011;53180;51.344;6.152;2023-01-10T00:59:56;3.78;;;3.10;;
33270;SDS011;53180;51.344;6.152;2023-01-10T01:02:24;2.60;;;2.50;;
33270;SDS011;53180;51.344;6.152;2023-01-10T01:04:52;3.00;;;2.70;;
33270;SDS011;53180;51.344;6.152;2023-01-10T01:07:22;2.85;;;2.65;;
33270;SDS011;53180;51.344;6.152;2023-01-10T01:09:50;3.42;;;3.03;;
33270;SDS011;53180;51.344;6.152;2023-01-10T01:12:36;5.47;;;3.20;;
33270;SDS011;53180;51.344;6.152;2023-01-10T01:15:04;3.03;;;2.80;;
33270;SDS011;53180;51.344;6.152;2023-01-10T01:17:34;3.05;;;2.78;;
33270;SDS011;53180;51.344;6.152;2023-01-10T01:20:02;2.97;;;2.78;;
33270;SDS011;53180;51.344;6.152;2023-01-10T01:22:33;4.63;;;3.08;;
33270;SDS011;53180;51.344;6.152;2023-01-10T01:25:02;3.20;;;2.93;;
33270;SDS011;53180;51.344;6.152;2023-01-10T01:27:31;3.08;;;2.88;;
33270;SDS011;53180;51.344;6.152;2023-01-10T01:30:03;4.20;;;3.30;;
33270;SDS011;53180;51.344;6.152;2023-01-10T01:32:33;3.35;;;3.03;;
33270;SDS011;53180;51.344;6.152;2023-01-10T01:35:02;5.88;;;3.20;;
33270;SDS011;53180;51.344;6.152;2023-01-10T01:37:31;3.42;;;2.83;;
33270;SDS011;53180;51.344;6.152;2023-01-10T01:40:01;3.42;;;3.13;;
33270;SDS011;53180;51.344;6.152;2023-01-10T01:42:31;4.47;;;3.28;;
33270;SDS011;53180;51.344;6.152;2023-01-10T01:48:12;3.40;;;3.10;;
33270;SDS011;53180;51.344;6.152;2023-01-10T01:50:47;3.15;;;2.95;;
33270;SDS011;53180;51.344;6.152;2023-01-10T01:53:24;2.92;;;2.72;;
33270;SDS011;53180;51.344;6.152;2023-01-10T01:55:58;3.30;;;3.10;;
33270;SDS011;53180;51.344;6.152;2023-01-10T01:58:31;3.20;;;3.00;;
33270;SDS011;53180;51.344;6.152;2023-01-10T02:01:06;4.82;;;3.13;;
33270;SDS011;53180;51.344;6.152;2023-01-10T02:03:34;3.83;;;3.53;;
33270;SDS011;53180;51.344;6.152;2023-01-10T02:06:05;3.10;;;2.90;;
33270;SDS011;53180;51.344;6.152;2023-01-10T02:08:35;3.53;;;3.15;;
33270;SDS011;53180;51.344;6.152;2023-01-10T02:11:07;3.85;;;3.45;;
33270;SDS011;53180;51.344;6.152;2023-01-10T02:13:37;3.83;;;3.17;;
33270;SDS011;53180;51.344;6.152;2023-01-10T02:18:36;3.58;;;3.25;;
33270;SDS011;53180;51.344;6.152;2023-01-10T02:21:24;3.60;;;3.30;;
33270;SDS011;53180;51.344;6.152;2023-01-10T02:27:58;3.42;;;3.13;;
33270;SDS011;53180;51.344;6.152;2023-01-10T02:30:52;3.28;;;3.05;;
33270;SDS011;53180;51.344;6.152;2023-01-10T02:33:46;3.75;;;3.45;;
33270;SDS011;53180;51.344;6.152;2023-01-10T02:36:23;3.15;;;2.95;;
33270;SDS011;53180;51.344;6.152;2023-01-10T02:39:03;3.45;;;3.17;;
33270;SDS011;53180;51.344;6.152;2023-01-10T02:41:39;3.47;;;3.17;;
33270;SDS011;53180;51.344;6.152;2023-01-10T02:44:13;3.67;;;3.38;;
33270;SDS011;53180;51.344;6.152;2023-01-10T02:46:48;7.20;;;3.00;;
33270;SDS011;53180;51.344;6.152;2023-01-10T02:49:19;3.10;;;2.90;;
33270;SDS011;53180;51.344;6.152;2023-01-10T02:51:47;3.53;;;3.22;;
33270;SDS011;53180;51.344;6.152;2023-01-10T02:54:17;3.20;;;3.00;;
33270;SDS011;53180;51.344;6.152;2023-01-10T03:00:03;3.75;;;3.45;;
33270;SDS011;53180;51.344;6.152;2023-01-10T03:06:05;3.40;;;3.20;;
33270;SDS011;53180;51.344;6.152;2023-01-10T03:08:47;3.63;;;3.33;;
33270;SDS011;53180;51.344;6.152;2023-01-10T03:11:23;4.10;;;3.30;;
33270;SDS011;53180;51.344;6.152;2023-01-10T03:14:07;3.83;;;3.47;;
33270;SDS011;53180;51.344;6.152;2023-01-10T03:16:43;3.45;;;3.15;;
33270;SDS011;53180;51.344;6.152;2023-01-10T03:19:16;3.28;;;3.05;;
33270;SDS011;53180;51.344;6.152;2023-01-10T03:21:50;7.90;;;3.25;;
33270;SDS011;53180;51.344;6.152;2023-01-10T03:24:23;3.67;;;3.38;;
33270;SDS011;53180;51.344;6.152;2023-01-10T03:27:05;3.47;;;3.17;;
33270;SDS011;53180;51.344;6.152;2023-01-10T03:29:40;3.30;;;3.00;;
33270;SDS011;53180;51.344;6.152;2023-01-10T03:32:15;5.47;;;3.75;;
33270;SDS011;53180;51.344;6.152;2023-01-10T03:34:48;3.08;;;2.83;;
33270;SDS011;53180;51.344;6.152;2023-01-10T03:37:19;3.80;;;3.20;;
33270;SDS011;53180;51.344;6.152;2023-01-10T03:39:59;5.20;;;3.05;;
33270;SDS011;53180;51.344;6.152;2023-01-10T03:42:36;4.03;;;3.13;;
33270;SDS011;53180;51.344;6.152;2023-01-10T03:45:35;3.40;;;3.10;;
33270;SDS011;53180;51.344;6.152;2023-01-10T03:48:10;3.20;;;3.00;;
33270;SDS011;53180;51.344;6.152;2023-01-10T03:50:42;3.03;;;2.80;;
33270;SDS011;53180;51.344;6.152;2023-01-10T03:53:13;3.00;;;2.80;;
33270;SDS011;53180;51.344;6.152;2023-01-10T03:58:11;3.50;;;3.20;;
33270;SDS011;53180;51.344;6.152;2023-01-10T04:00:40;3.13;;;2.92;;
33270;SDS011;53180;51.344;6.152;2023-01-10T04:03:08;3.95;;;3.50;;
33270;SDS011;53180;51.344;6.152;2023-01-10T04:05:36;3.17;;;2.85;;
33270;SDS011;53180;51.344;6.152;2023-01-10T04:08:04;3.28;;;3.00;;
33270;SDS011;53180;51.344;6.152;2023-01-10T04:10:34;6.63;;;3.97;;
33270;SDS011;53180;51.344;6.152;2023-01-10T04:13:03;3.20;;;2.90;;
33270;SDS011;53180;51.344;6.152;2023-01-10T04:15:32;3.47;;;3.28;;
33270;SDS011;53180;51.344;6.152;2023-01-10T04:18:00;7.05;;;3.33;;
33270;SDS011;53180;51.344;6.152;2023-01-10T04:20:28;3.40;;;3.20;;
33270;SDS011;53180;51.344;6.152;2023-01-10T04:22:57;3.40;;;3.10;;
33270;SDS011;53180;51.344;6.152;2023-01-10T04:25:25;3.10;;;2.90;;
33270;SDS011;53180;51.344;6.152;2023-01-10T04:27:54;3.20;;;2.90;;
33270;SDS011;53180;51.344;6.152;2023-01-10T04:30:23;4.63;;;3.13;;
33270;SDS011;53180;51.344;6.152;2023-01-10T04:32:51;3.63;;;3.28;;
33270;SDS011;53180;51.344;6.152;2023-01-10T04:35:19;4.25;;;3.17;;
33270;SDS011;53180;51.344;6.152;2023-01-10T04:37:48;7.72;;;3.35;;
33270;SDS011;53180;51.344;6.152;2023-01-10T04:40:16;3.55;;;3.22;;
33270;SDS011;53180;51.344;6.152;2023-01-10T04:42:48;5.35;;;3.47;;
33270;SDS011;53180;51.344;6.152;2023-01-10T04:45:18;4.35;;;3.47;;
33270;SDS011;53180;51.344;6.152;2023-01-10T04:47:50;4.03;;;3.22;;
33270;SDS011;53180;51.344;6.152;2023-01-10T04:50:21;3.60;;;3.30;;
33270;SDS011;53180;51.344;6.152;2023-01-10T04:52:50;3.13;;;2.88;;
33270;SDS011;53180;51.344;6.152;2023-01-10T04:55:18;8.02;;;3.67;;
33270;SDS011;53180;51.344;6.152;2023-01-10T04:57:47;3.22;;;3.03;;
33270;SDS011;53180;51.344;6.152;2023-01-10T05:00:15;3.20;;;3.00;;
33270;SDS011;53180;51.344;6.152;2023-01-10T05:02:45;3.78;;;3.15;;
33270;SDS011;53180;51.344;6.152;2023-01-10T05:05:14;3.63;;;3.05;;
33270;SDS011;53180;51.344;6.152;2023-01-10T05:07:44;3.75;;;3.45;;
33270;SDS011;53180;51.344;6.152;2023-01-10T05:10:13;3.30;;;3.00;;
33270;SDS011;53180;51.344;6.152;2023-01-10T05:12:42;3.10;;;2.90;;
33270;SDS011;53180;51.344;6.152;2023-01-10T05:15:10;3.40;;;3.10;;
33270;SDS011;53180;51.344;6.152;2023-01-10T05:17:40;3.50;;;3.20;;
33270;SDS011;53180;51.344;6.152;2023-01-10T05:20:09;3.40;;;2.90;;
33270;SDS011;53180;51.344;6.152;2023-01-10T05:22:39;5.90;;;3.50;;
33270;SDS011;53180;51.344;6.152;2023-01-10T05:25:08;3.35;;;3.13;;
33270;SDS011;53180;51.344;6.152;2023-01-10T05:27:39;3.60;;;3.30;;
33270;SDS011;53180;51.344;6.152;2023-01-10T05:30:09;4.05;;;3.38;;
33270;SDS011;53180;51.344;6.152;2023-01-10T05:32:40;4.15;;;3.45;;
33270;SDS011;53180;51.344;6.152;2023-01-10T05:35:08;3.05;;;2.85;;
33270;SDS011;53180;51.344;6.152;2023-01-10T05:37:37;3.65;;;3.33;;
33270;SDS011;53180;51.344;6.152;2023-01-10T05:40:06;4.43;;;3.70;;
33270;SDS011;53180;51.344;6.152;2023-01-10T05:42:36;6.93;;;4.03;;
33270;SDS011;53180;51.344;6.152;2023-01-10T05:45:05;5.10;;;3.42;;
33270;SDS011;53180;51.344;6.152;2023-01-10T05:47:34;5.75;;;3.65;;
33270;SDS011;53180;51.344;6.152;2023-01-10T05:50:04;3.75;;;3.28;;
33270;SDS011;53180;51.344;6.152;2023-01-10T05:52:33;3.70;;;3.35;;
33270;SDS011;53180;51.344;6.152;2023-01-10T05:55:01;4.63;;;3.67;;
33270;SDS011;53180;51.344;6.152;2023-01-10T05:57:30;5.65;;;3.50;;
33270;SDS011;53180;51.344;6.152;2023-01-10T05:59:59;3.72;;;3.28;;
33270;SDS011;53180;51.344;6.152;2023-01-10T06:04:59;5.03;;;3.55;;
33270;SDS011;53180;51.344;6.152;2023-01-10T06:07:29;3.08;;;2.85;;
33270;SDS011;53180;51.344;6.152;2023-01-10T06:09:57;3.73;;;3.40;;
33270;SDS011;53180;51.344;6.152;2023-01-10T06:12:26;3.70;;;3.40;;
33270;SDS011;53180;51.344;6.152;2023-01-10T06:14:54;3.88;;;3.40;;
33270;SDS011;53180;51.344;6.152;2023-01-10T06:17:22;4.15;;;3.75;;
33270;SDS011;53180;51.344;6.152;2023-01-10T06:19:50;3.97;;;3.53;;
33270;SDS011;53180;51.344;6.152;2023-01-10T06:22:19;3.83;;;3.47;;
33270;SDS011;53180;51.344;6.152;2023-01-10T06:24:48;5.93;;;3.28;;
33270;SDS011;53180;51.344;6.152;2023-01-10T06:27:16;9.98;;;3.67;;
33270;SDS011;53180;51.344;6.152;2023-01-10T06:29:45;3.58;;;3.28;;
33270;SDS011;53180;51.344;6.152;2023-01-10T06:32:13;4.43;;;3.50;;
33270;SDS011;53180;51.344;6.152;2023-01-10T06:34:41;4.18;;;3.40;;
33270;SDS011;53180;51.344;6.152;2023-01-10T06:37:10;4.38;;;3.28;;
33270;SDS011;53180;51.344;6.152;2023-01-10T06:39:38;3.63;;;3.33;;
33270;SDS011;53180;51.344;6.152;2023-01-10T06:42:07;4.40;;;3.30;;
33270;SDS011;53180;51.344;6.152;2023-01-10T06:44:36;5.82;;;3.38;;
33270;SDS011;53180;51.344;6.152;2023-01-10T06:47:04;4.65;;;3.20;;
33270;SDS011;53180;51.344;6.152;2023-01-10T06:49:32;3.40;;;3.10;;
33270;SDS011;53180;51.344;6.152;2023-01-10T06:52:00;3.65;;;3.35;;
33270;SDS011;53180;51.344;6.152;2023-01-10T06:54:29;3.65;;;2.92;;
33270;SDS011;53180;51.344;6.152;2023-01-10T06:56:57;3.08;;;2.88;;
33270;SDS011;53180;51.344;6.152;2023-01-10T06:59:26;3.05;;;2.80;;
33270;SDS011;53180;51.344;6.152;2023-01-10T07:01:55;4.68;;;3.63;;
33270;SDS011;53180;51.344;6.152;2023-01-10T07:04:23;3.83;;;3.42;;
33270;SDS011;53180;51.344;6.152;2023-01-10T07:06:52;5.60;;;3.63;;
33270;SDS011;53180;51.344;6.152;2023-01-10T07:09:21;15.85;;;3.33;;
33270;SDS011;53180;51.344;6.152;2023-01-10T07:11:49;3.42;;;3.10;;
33270;SDS011;53180;51.344;6.152;2023-01-10T07:14:17;3.05;;;2.83;;
33270;SDS011;53180;51.344;6.152;2023-01-10T07:16:47;3.78;;;3.17;;
33270;SDS011;53180;51.344;6.152;2023-01-10T07:19:15;3.55;;;3.25;;
33270;SDS011;53180;51.344;6.152;2023-01-10T07:21:45;6.18;;;3.10;;
33270;SDS011;53180;51.344;6.152;2023-01-10T07:24:13;6.15;;;3.45;;
33270;SDS011;53180;51.344;6.152;2023-01-10T07:26:42;3.30;;;3.10;;
33270;SDS011;53180;51.344;6.152;2023-01-10T07:29:10;4.40;;;3.00;;
33270;SDS011;53180;51.344;6.152;2023-01-10T07:31:38;7.20;;;3.25;;
33270;SDS011;53180;51.344;6.152;2023-01-10T07:34:08;4.28;;;3.10;;
33270;SDS011;53180;51.344;6.152;2023-01-10T07:36:36;5.78;;;3.28;;
33270;SDS011;53180;51.344;6.152;2023-01-10T07:39:05;4.15;;;3.75;;
33270;SDS011;53180;51.344;6.152;2023-01-10T07:41:33;3.83;;;3.47;;
33270;SDS011;53180;51.344;6.152;2023-01-10T07:44:01;4.25;;;3.45;;
33270;SDS011;53180;51.344;6.152;2023-01-10T07:46:30;3.80;;;3.15;;
33270;SDS011;53180;51.344;6.152;2023-01-10T07:48:58;3.10;;;2.90;;
33270;SDS011;53180;51.344;6.152;2023-01-10T07:51:28;3.30;;;3.00;;
33270;SDS011;53180;51.344;6.152;2023-01-10T07:53:56;3.97;;;3.50;;
33270;SDS011;53180;51.344;6.152;2023-01-10T07:56:24;4.05;;;3.60;;
33270;SDS011;53180;51.344;6.152;2023-01-10T07:58:52;4.78;;;4.07;;
33270;SDS011;53180;51.344;6.152;2023-01-10T08:01:21;3.78;;;3.42;;
33270;SDS011;53180;51.344;6.152;2023-01-10T08:03:50;4.70;;;3.17;;
33270;SDS011;53180;51.344;6.152;2023-01-10T08:06:18;3.78;;;3.47;;
33270;SDS011;53180;51.344;6.152;2023-01-10T08:08:48;3.83;;;3.53;;
33270;SDS011;53180;51.344;6.152;2023-01-10T08:11:16;4.50;;;3.42;;
33270;SDS011;53180;51.344;6.152;2023-01-10T08:13:44;6.75;;;3.70;;
33270;SDS011;53180;51.344;6.152;2023-01-10T08:16:13;3.50;;;3.22;;
33270;SDS011;53180;51.344;6.152;2023-01-10T08:18:42;5.88;;;3.97;;
33270;SDS011;53180;51.344;6.152;2023-01-10T08:21:10;3.03;;;2.83;;
33270;SDS011;53180;51.344;6.152;2023-01-10T08:23:38;3.70;;;3.40;;
33270;SDS011;53180;51.344;6.152;2023-01-10T08:26:08;3.22;;;3.00;;
33270;SDS011;53180;51.344;6.152;2023-01-10T08:28:36;6.00;;;3.65;;
33270;SDS011;53180;51.344;6.152;2023-01-10T08:31:05;3.15;;;2.95;;
33270;SDS011;53180;51.344;6.152;2023-01-10T08:33:35;3.78;;;3.45;;
33270;SDS011;53180;51.344;6.152;2023-01-10T08:36:05;4.20;;;3.73;;
33270;SDS011;53180;51.344;6.152;2023-01-10T08:38:41;3.20;;;3.00;;
33270;SDS011;53180;51.344;6.152;2023-01-10T08:41:11;7.15;;;3.38;;
33270;SDS011;53180;51.344;6.152;2023-01-10T08:43:39;3.47;;;3.20;;
33270;SDS011;53180;51.344;6.152;2023-01-10T08:46:08;4.72;;;3.08;;
33270;SDS011;53180;51.344;6.152;2023-01-10T08:48:36;4.10;;;3.35;;
33270;SDS011;53180;51.344;6.152;2023-01-10T08:51:06;4.50;;;3.75;;
33270;SDS011;53180;51.344;6.152;2023-01-10T08:53:35;7.25;;;3.40;;
33270;SDS011;53180;51.344;6.152;2023-01-10T08:56:05;3.00;;;2.63;;
33270;SDS011;53180;51.344;6.152;2023-01-10T08:58:36;5.38;;;3.15;;
33270;SDS011;53180;51.344;6.152;2023-01-10T09:01:05;6.82;;;3.05;;
33270;SDS011;53180;51.344;6.152;2023-01-10T09:03:34;3.65;;;3.22;;
33270;SDS011;53180;51.344;6.152;2023-01-10T09:06:02;3.53;;;3.00;;
33270;SDS011;53180;51.344;6.152;2023-01-10T09:08:31;2.88;;;2.67;;
33270;SDS011;53180;51.344;6.152;2023-01-10T09:11:00;5.95;;;3.13;;
33270;SDS011;53180;51.344;6.152;2023-01-10T09:13:28;5.22;;;3.45;;
33270;SDS011;53180;51.344;6.152;2023-01-10T09:15:58;4.05;;;3.38;;
33270;SDS011;53180;51.344;6.152;2023-01-10T09:18:27;4.60;;;3.00;;
33270;SDS011;53180;51.344;6.152;2023-01-10T09:20:55;4.88;;;2.53;;
33270;SDS011;53180;51.344;6.152;2023-01-10T09:23:23;3.03;;;2.72;;
33270;SDS011;53180;51.344;6.152;2023-01-10T09:25:52;3.58;;;2.83;;
33270;SDS011;53180;51.344;6.152;2023-01-10T09:28:23;5.57;;;3.10;;
33270;SDS011;53180;51.344;6.152;2023-01-10T09:30:51;4.18;;;3.00;;
33270;SDS011;53180;51.344;6.152;2023-01-10T09:33:21;5.38;;;2.80;;
33270;SDS011;53180;51.344;6.152;2023-01-10T09:35:51;4.05;;;3.05;;
33270;SDS011;53180;51.344;6.152;2023-01-10T09:38:25;3.00;;;2.67;;
33270;SDS011;53180;51.344;6.152;2023-01-10T09:41:02;3.38;;;2.35;;
33270;SDS011;53180;51.344;6.152;2023-01-10T09:44:02;7.90;;;3.40;;
33270;SDS011;53180;51.344;6.152;2023-01-10T09:46:36;4.63;;;2.92;;
33270;SDS011;53180;51.344;6.152;2023-01-10T09:49:20;4.03;;;3.03;;
33270;SDS011;53180;51.344;6.152;2023-01-10T09:51:56;4.97;;;2.97;;
33270;SDS011;53180;51.344;6.152;2023-01-10T09:54:26;2.50;;;2.30;;
33270;SDS011;53180;51.344;6.152;2023-01-10T09:56:59;8.10;;;2.50;;
33270;SDS011;53180;51.344;6.152;2023-01-10T09:59:30;7.22;;;2.78;;
33270;SDS011;53180;51.344;6.152;2023-01-10T10:02:13;6.18;;;3.00;;
33270;SDS011;53180;51.344;6.152;2023-01-10T10:04:57;3.00;;;2.80;;
33270;SDS011;53180;51.344;6.152;2023-01-10T10:07:37;3.22;;;2.53;;
33270;SDS011;53180;51.344;6.152;2023-01-10T10:10:06;2.72;;;2.30;;
33270;SDS011;53180;51.344;6.152;2023-01-10T10:12:51;5.60;;;2.80;;
33270;SDS011;53180;51.344;6.152;2023-01-10T10:15:41;6.43;;;2.78;;
33270;SDS011;53180;51.344;6.152;2023-01-10T10:18:17;4.40;;;3.25;;
33270;SDS011;53180;51.344;6.152;2023-01-10T10:20:59;3.75;;;2.85;;
33270;SDS011;53180;51.344;6.152;2023-01-10T10:23:40;12.38;;;2.90;;
33270;SDS011;53180;51.344;6.152;2023-01-10T10:26:46;5.30;;;2.92;;
33270;SDS011;53180;51.344;6.152;2023-01-10T10:32:36;5.13;;;2.60;;
33270;SDS011;53180;51.344;6.152;2023-01-10T10:35:22;3.30;;;2.80;;
33270;SDS011;53180;51.344;6.152;2023-01-10T10:37:55;2.50;;;2.30;;
33270;SDS011;53180;51.344;6.152;2023-01-10T10:40:31;3.00;;;2.42;;
33270;SDS011;53180;51.344;6.152;2023-01-10T10:43:10;3.35;;;2.75;;
33270;SDS011;53180;51.344;6.152;2023-01-10T10:45:45;3.72;;;2.67;;
33270;SDS011;53180;51.344;6.152;2023-01-10T10:48:20;4.10;;;2.50;;
33270;SDS011;53180;51.344;6.152;2023-01-10T10:50:59;2.72;;;2.53;;
33270;SDS011;53180;51.344;6.152;2023-01-10T10:53:34;4.15;;;2.53;;
33270;SDS011;53180;51.344;6.152;2023-01-10T10:56:03;5.13;;;2.55;;
33270;SDS011;53180;51.344;6.152;2023-01-10T10:58:42;4.93;;;2.78;;
33270;SDS011;53180;51.344;6.152;2023-01-10T11:01:12;6.38;;;3.05;;
33270;SDS011;53180;51.344;6.152;2023-01-10T11:03:43;2.63;;;2.43;;
33270;SDS011;53180;51.344;6.152;2023-01-10T11:06:16;4.90;;;2.58;;
33270;SDS011;53180;51.344;6.152;2023-01-10T11:08:47;4.15;;;2.75;;
33270;SDS011;53180;51.344;6.152;2023-01-10T11:11:21;4.70;;;2.47;;
33270;SDS011;53180;51.344;6.152;2023-01-10T11:13:54;2.78;;;2.53;;
33270;SDS011;53180;51.344;6.152;2023-01-10T11:16:26;3.40;;;2.70;;
33270;SDS011;53180;51.344;6.152;2023-01-10T11:19:10;6.90;;;2.50;;
33270;SDS011;53180;51.344;6.152;2023-01-10T11:21:49;5.20;;;2.92;;
33270;SDS011;53180;51.344;6.152;2023-01-10T11:24:24;5.47;;;2.40;;
33270;SDS011;53180;51.344;6.152;2023-01-10T11:26:55;12.30;;;2.67;;
33270;SDS011;53180;51.344;6.152;2023-01-10T11:29:35;2.33;;;2.13;;
33270;SDS011;53180;51.344;6.152;2023-01-10T11:32:09;2.63;;;2.42;;
33270;SDS011;53180;51.344;6.152;2023-01-10T11:34:41;3.47;;;2.25;;
33270;SDS011;53180;51.344;6.152;2023-01-10T11:37:20;3.95;;;3.00;;
33270;SDS011;53180;51.344;6.152;2023-01-10T11:40:16;5.97;;;2.80;;
33270;SDS011;53180;51.344;6.152;2023-01-10T11:42:49;2.53;;;2.22;;
33270;SDS011;53180;51.344;6.152;2023-01-10T11:45:25;4.32;;;2.55;;
33270;SDS011;53180;51.344;6.152;2023-01-10T11:47:59;4.82;;;2.38;;
33270;SDS011;53180;51.344;6.152;2023-01-10T11:50:35;2.65;;;2.25;;
33270;SDS011;53180;51.344;6.152;2023-01-10T11:53:05;8.05;;;2.40;;
33270;SDS011;53180;51.344;6.152;2023-01-10T11:55:57;4.90;;;2.65;;
33270;SDS011;53180;51.344;6.152;2023-01-10T11:58:28;4.95;;;2.78;;
33270;SDS011;53180;51.344;6.152;2023-01-10T12:00:58;5.07;;;2.42;;
33270;SDS011;53180;51.344;6.152;2023-01-10T12:03:27;3.25;;;2.25;;
33270;SDS011;53180;51.344;6.152;2023-01-10T12:06:03;3.58;;;2.40;;
33270;SDS011;53180;51.344;6.152;2023-01-10T12:08:35;5.57;;;1.90;;
33270;SDS011;53180;51.344;6.152;2023-01-10T12:11:21;2.15;;;1.92;;
33270;SDS011;53180;51.344;6.152;2023-01-10T12:13:54;2.42;;;2.15;;
33270;SDS011;53180;51.344;6.152;2023-01-10T12:16:25;3.03;;;2.20;;
33270;SDS011;53180;51.344;6.152;2023-01-10T12:21:29;3.10;;;2.20;;
33270;SDS011;53180;51.344;6.152;2023-01-10T12:24:03;2.95;;;2.28;;
33270;SDS011;53180;51.344;6.152;2023-01-10T12:26:40;6.35;;;2.65;;
33270;SDS011;53180;51.344;6.152;2023-01-10T12:29:11;4.25;;;2.20;;
33270;SDS011;53180;51.344;6.152;2023-01-10T12:31:46;2.17;;;2.00;;
33270;SDS011;53180;51.344;6.152;2023-01-10T12:34:16;3.63;;;2.58;;
33270;SDS011;53180;51.344;6.152;2023-01-10T12:36:49;4.63;;;2.30;;
33270;SDS011;53180;51.344;6.152;2023-01-10T12:39:27;8.30;;;2.67;;
33270;SDS011;53180;51.344;6.152;2023-01-10T12:42:03;8.25;;;2.90;;
33270;SDS011;53180;51.344;6.152;2023-01-10T12:45:05;4.40;;;2.25;;
33270;SDS011;53180;51.344;6.152;2023-01-10T12:47:42;4.00;;;2.50;;
33270;SDS011;53180;51.344;6.152;2023-01-10T12:50:26;4.95;;;2.35;;
33270;SDS011;53180;51.344;6.152;2023-01-10T12:53:02;2.95;;;2.47;;
33270;SDS011;53180;51.344;6.152;2023-01-10T12:55:35;2.97;;;2.25;;
33270;SDS011;53180;51.344;6.152;2023-01-10T12:58:11;3.28;;;2.10;;
33270;SDS011;53180;51.344;6.152;2023-01-10T13:00:47;9.43;;;2.22;;
33270;SDS011;53180;51.344;6.152;2023-01-10T13:03:19;1.80;;;1.70;;
33270;SDS011;53180;51.344;6.152;2023-01-10T13:05:51;3.63;;;2.17;;
33270;SDS011;53180;51.344;6.152;2023-01-10T13:08:21;5.85;;;2.28;;
33270;SDS011;53180;51.344;6.152;2023-01-10T13:10:53;6.15;;;2.10;;
33270;SDS011;53180;51.344;6.152;2023-01-10T13:13:28;4.07;;;2.40;;
33270;SDS011;53180;51.344;6.152;2023-01-10T13:16:04;5.63;;;2.15;;
33270;SDS011;53180;51.344;6.152;2023-01-10T13:19:03;4.90;;;1.98;;
33270;SDS011;53180;51.344;6.152;2023-01-10T13:21:49;10.10;;;2.40;;
33270;SDS011;53180;51.344;6.152;2023-01-10T13:24:38;3.85;;;2.50;;
33270;SDS011;53180;51.344;6.152;2023-01-10T13:27:14;4.10;;;3.63;;
33270;SDS011;53180;51.344;6.152;2023-01-10T13:29:47;2.42;;;2.00;;
33270;SDS011;53180;51.344;6.152;2023-01-10T13:32:17;3.10;;;2.20;;
33270;SDS011;53180;51.344;6.152;2023-01-10T13:34:49;2.30;;;2.10;;
33270;SDS011;53180;51.344;6.152;2023-01-10T13:37:20;12.63;;;2.10;;
33270;SDS011;53180;51.344;6.152;2023-01-10T13:39:52;2.22;;;2.03;;
33270;SDS011;53180;51.344;6.152;2023-01-10T13:42:26;6.80;;;2.00;;
33270;SDS011;53180;51.344;6.152;2023-01-10T13:45:22;1.92;;;1.83;;
33270;SDS011;53180;51.344;6.152;2023-01-10T13:48:03;3.60;;;2.25;;
33270;SDS011;53180;51.344;6.152;2023-01-10T13:51:02;6.45;;;2.28;;
33270;SDS011;53180;51.344;6.152;2023-01-10T13:53:41;8.65;;;2.38;;
33270;SDS011;53180;51.344;6.152;2023-01-10T13:56:28;2.85;;;2.13;;
33270;SDS011;53180;51.344;6.152;2023-01-10T13:59:02;2.00;;;1.90;;
33270;SDS011;53180;51.344;6.152;2023-01-10T14:01:55;11.90;;;2.72;;
33270;SDS011;53180;51.344;6.152;2023-01-10T14:04:44;3.03;;;2.25;;
33270;SDS011;53180;51.344;6.152;2023-01-10T14:07:20;6.68;;;2.30;;
33270;SDS011;53180;51.344;6.152;2023-01-10T14:09:51;4.40;;;2.03;;
33270;SDS011;53180;51.344;6.152;2023-01-10T14:12:30;2.10;;;1.83;;
33270;SDS011;53180;51.344;6.152;2023-01-10T14:15:03;2.35;;;1.98;;
33270;SDS011;53180;51.344;6.152;2023-01-10T14:17:36;10.25;;;2.22;;
33270;SDS011;53180;51.344;6.152;2023-01-10T14:20:13;4.40;;;2.30;;
33270;SDS011;53180;51.344;6.152;2023-01-10T14:22:59;8.00;;;2.22;;
33270;SDS011;53180;51.344;6.152;2023-01-10T14:25:32;5.05;;;2.08;;
33270;SDS011;53180;51.344;6.152;2023-01-10T14:28:02;4.90;;;2.20;;
33270;SDS011;53180;51.344;6.152;2023-01-10T14:30:43;2.35;;;1.73;;
33270;SDS011;53180;51.344;6.152;2023-01-10T14:33:23;2.58;;;1.92;;
33270;SDS011;53180;51.344;6.152;2023-01-10T14:35:52;7.05;;;2.00;;
33270;SDS011;53180;51.344;6.152;2023-01-10T14:38:25;2.63;;;1.90;;
33270;SDS011;53180;51.344;6.152;2023-01-10T14:40:56;4.25;;;1.92;;
33270;SDS011;53180;51.344;6.152;2023-01-10T14:43:30;10.27;;;1.90;;
33270;SDS011;53180;51.344;6.152;2023-01-10T14:46:09;3.92;;;2.20;;
33270;SDS011;53180;51.344;6.152;2023-01-10T14:48:44;2.45;;;2.25;;
33270;SDS011;53180;51.344;6.152;2023-01-10T14:51:18;2.38;;;1.88;;
33270;SDS011;53180;51.344;6.152;2023-01-10T14:53:56;2.95;;;2.30;;
33270;SDS011;53180;51.344;6.152;2023-01-10T14:56:27;4.00;;;2.25;;
33270;SDS011;53180;51.344;6.152;2023-01-10T14:59:14;4.72;;;2.28;;
33270;SDS011;53180;51.344;6.152;2023-01-10T15:01:52;6.05;;;2.40;;
33270;SDS011;53180;51.344;6.152;2023-01-10T15:04:24;2.45;;;1.98;;
33270;SDS011;53180;51.344;6.152;2023-01-10T15:06:55;1.80;;;1.70;;
33270;SDS011;53180;51.344;6.152;2023-01-10T15:09:28;2.13;;;1.90;;
33270;SDS011;53180;51.344;6.152;2023-01-10T15:11:58;3.00;;;2.30;;
33270;SDS011;53180;51.344;6.152;2023-01-10T15:14:28;2.58;;;2.05;;
33270;SDS011;53180;51.344;6.152;2023-01-10T15:17:00;3.07;;;2.40;;
33270;SDS011;53180;51.344;6.152;2023-01-10T15:19:34;2.42;;;2.20;;
33270;SDS011;53180;51.344;6.152;2023-01-10T15:22:14;2.55;;;2.35;;
33270;SDS011;53180;51.344;6.152;2023-01-10T15:24:58;5.45;;;2.35;;
33270;SDS011;53180;51.344;6.152;2023-01-10T15:27:28;2.40;;;2.20;;
33270;SDS011;53180;51.344;6.152;2023-01-10T15:29:57;2.40;;;2.20;;
33270;SDS011;53180;51.344;6.152;2023-01-10T15:32:27;4.72;;;2.35;;
33270;SDS011;53180;51.344;6.152;2023-01-10T15:35:01;2.38;;;2.17;;
33270;SDS011;53180;51.344;6.152;2023-01-10T15:37:30;8.27;;;2.50;;
33270;SDS011;53180;51.344;6.152;2023-01-10T15:40:02;3.10;;;2.80;;
33270;SDS011;53180;51.344;6.152;2023-01-10T15:42:33;2.50;;;2.30;;
33270;SDS011;53180;51.344;6.152;2023-01-10T15:45:15;2.50;;;2.30;;
33270;SDS011;53180;51.344;6.152;2023-01-10T15:47:53;4.05;;;2.40;;
33270;SDS011;53180;51.344;6.152;2023-01-10T15:50:31;2.58;;;2.30;;